South Mason Valley, Nevada Weather observations

Data are for 10 minute period ending at time listed.
 Day   Time   Solar   Ave.   Ave.  Ave.  Vector  Max.   Baro.   Total    
  of    of     Rad.   Air    Rel.  Wind   Wind   Wind  Press.  Precip.   
Year   Day            Temp.  Hum.  Speed  Dir.   Gust                    
2015   (PST)  Kw/m2    F      %     mph   deg.    mph    mb.     in.     
-------------------------------------------------------------------------
  58    4:50   0.00   36.1    56    2.3   313     3.5   872.2    0.00 
  58    5:00   0.00   34.9    59    3.7   335     4.6   872.2    0.00 
  58    5:10   0.00   33.3    62    3.8   325     5.0   872.1    0.00 
  58    5:20   0.00   33.7    61    3.8   345     7.1   872.0    0.00 
  58    5:30   0.00   32.8    63    5.2   336     7.7   872.1    0.00 
  58    5:40   0.00   33.1    65    5.2   340     6.4   872.1    0.00 
  58    5:50   0.00   32.9    64    3.1     6     4.2   872.1    0.00 
  58    6:00   0.00   31.7    67    3.5    13     4.2   872.0    0.00 
  58    6:10   0.00   31.7    66    2.7     5     4.4   871.9    0.00 
  58    6:20   0.00   29.3    68    2.1   342     4.2   872.0    0.00 
  58    6:30   0.00   30.7    70    2.0   356     3.9   871.8    0.00 
  58    6:40   0.01   29.2    70    1.2   321     2.9   871.8    0.00 
  58    6:50   0.01   29.6    72    0.5   298     1.5   871.8    0.00 
  58    7:00   0.04   29.2    73    1.2   284     2.3   871.7    0.00 
  58    7:10   0.09   31.3    74    0.8   316     2.0   871.7    0.00 
  58    7:20   0.10   33.3    72    2.5   314     4.5   871.7    0.00 
  58    7:30   0.10   34.5    72    1.0   343     3.1   871.8    0.00 
  58    7:40   0.17   36.3    71    2.5   345     4.4   871.8    0.00 
  58    7:50   0.22   38.0    69    2.3   359     3.8   871.8    0.00 
  58    8:00   0.24   39.6    67    1.5    10     2.8   871.7    0.00 
  58    8:10   0.28   41.7    62    1.0    22     2.6   871.7    0.00 
  58    8:20   0.36   43.2    56    1.1   263     2.3   871.7    0.00 
  58    8:30   0.31   43.7    54    1.1   158     3.7   871.7    0.00 
  58    8:40   0.38   45.3    48    1.5   226     4.9   871.6    0.00 
  58    8:50   0.44   44.9    47    2.6   200     5.0   871.5    0.00 
  58    9:00   0.40   46.1    45    2.7   201     4.5   871.4    0.00 
  58    9:10   0.45   46.2    43    1.8   194     4.6   871.2    0.00 
  58    9:20   0.48   47.4    42    2.0   184     4.5   871.1    0.00 
  58    9:30   0.42   47.4    41    2.7   172     5.5   870.9    0.00 
  58    9:40   0.56   48.0    40    3.3   167     6.1   870.8    0.00 
  58    9:50   0.56   48.4    38    4.2   153     7.4   870.7    0.00 
  58   10:00   0.54   48.8    37    3.7   188     7.2   870.6    0.00 
  58   10:10   0.32   48.6    38    3.3   168     7.5   870.5    0.00 
  58   10:20   0.22   48.1    38    3.3   145     6.1   870.4    0.00 
  58   10:30   0.48   48.0    39    3.4   188     6.4   870.3    0.00 
  58   10:40   0.71   50.3    36    3.9   196     8.8   870.1    0.00 
  58   10:50   0.78   51.1    35    3.3   211     8.6   869.9    0.00 
  58   11:00   0.72   52.5    34    3.6   239     8.3   869.5    0.00 
  58   11:10   0.71   51.5    34    4.2   299     8.3   869.3    0.00 
  58   11:20   0.71   51.7    34    5.9   355    12.8   869.1    0.00 
  58   11:30   0.71   52.5    33    4.2   315     8.4   868.9    0.00 
  58   11:40   0.72   53.5    32    3.1   286    10.3   868.7    0.00 
  58   11:50   0.73   53.3    32    2.2   234     9.5   868.5    0.00 
  58   12:00   0.70   54.2    31    4.3   317     9.8   868.1    0.00 
  58   12:10   0.89   54.3    30    5.2    16     9.9   867.9    0.00 
  58   12:20   0.46   53.9    30    3.2   288     9.4   867.7    0.00 
  58   12:30   0.15   52.3    31    1.3   224     4.1   867.6    0.00 
  58   12:40   0.07   51.3    34    8.5   285    24.0   867.6    0.00 
  58   12:50   0.04   46.8    52   16.5   275    24.7   868.1    0.00 
  58   13:00   0.07   43.1    72   16.0   276    22.1   868.5    0.00 
  58   13:10   0.11   41.7    79   10.7   285    17.6   868.7    0.02 
  58   13:20   0.23   42.3    78    5.1   320    12.3   868.1    0.00 
  58   13:30   0.44   44.1    76    4.6   345     6.9   867.8    0.00 
  58   13:40   0.44   45.2    74    1.6   348     5.7   867.6    0.00 
  58   13:50   0.64   47.4    71    2.3    23     5.2   867.4    0.00 
  58   14:00   0.81   47.5    69    2.9    46     4.7   867.2    0.00 
  58   14:10   0.47   48.1    65    2.6    16     6.2   867.2    0.00 
  58   14:20   0.07   45.9    67   10.1   299    24.0   867.3    0.00 
  58   14:30   0.16   43.6    72    8.7   340    14.3   867.1    0.00 
  58   14:40   0.38   44.8    67    7.7   359    11.4   866.8    0.00 
  58   14:50   0.24   45.2    72   13.0   353    19.8   866.9    0.00 
  58   15:00   0.21   44.4    72    8.8     9    14.8   866.8    0.00 
  58   15:10   0.23   44.9    67    4.6    40     7.0   866.6    0.00 
  58   15:20   0.20   45.6    62    4.5    29     8.3   866.5    0.00 
  58   15:30   0.14   45.7    61    4.3   331     6.3   866.7    0.00 
  58   15:40   0.16   46.2    60    1.4   283     4.4   866.6    0.00 
  58   15:50   0.36   48.0    57    1.6   273     3.7   866.4    0.00 
  58   16:00   0.33   49.5    52    3.4   255     6.1   866.2    0.00 
  58   16:10   0.24   49.5    52    2.5   304     6.0   866.1    0.00 
  58   16:20   0.10   48.9    50    3.5   271     7.2   866.0    0.00 
  58   16:30   0.07   47.4    55    1.4   212     3.4   866.0    0.00 
  58   16:40   0.08   47.2    56    2.1   272     3.9   866.1    0.00 
  58   16:50   0.03   47.0    56    2.9   262     4.5   866.2    0.00 
  58   17:00   0.01   46.3    60    3.3    69     7.3   866.3    0.00 
  58   17:10   0.01   46.3    57    5.5   312    13.0   866.4    0.00 
  58   17:20   0.01   46.1    55   12.4   314    24.3   866.6    0.00 
  58   17:30   0.01   44.3    59    8.9   347    13.2   866.5    0.00 
  58   17:40   0.01   44.2    60    8.0   312    11.6   866.6    0.00 
  58   17:50   0.01   44.0    61    5.9   319    11.5   866.9    0.00 
  58   18:00   0.00   44.0    62    6.2   308    10.0   867.0    0.00 
  58   18:10   0.00   43.9    62    6.4   297    10.7   867.1    0.00 
  58   18:20   0.00   43.8    62    5.6   296     8.6   867.1    0.00 
  58   18:30   0.00   43.3    63    6.3   329    10.6   867.1    0.00 
  58   18:40   0.00   42.7    64    7.6   354    12.9   867.1    0.00 
  58   18:50   0.00   41.9    66    6.6   357    10.0   867.1    0.00 
  58   19:00   0.00   41.6    68    7.6   354    12.1   867.1    0.00 
  58   19:10   0.00   41.4    69    5.8   354    10.0   867.2    0.00 
  58   19:20   0.00   41.1    70    5.5   348     9.1   867.2    0.00 
  58   19:30   0.00   40.3    72    4.8   341     6.8   867.2    0.00 
  58   19:40   0.00   39.7    74    4.5     6     5.6   867.2    0.00 
  58   19:50   0.00   39.6    75    4.7    31     7.2   867.2    0.00 
  58   20:00   0.00   39.7    75    3.1    35     5.4   867.3    0.00 
  58   20:10   0.00   39.3    75    2.6    16     3.8   867.3    0.00 
  58   20:20   0.00   38.7    76    2.2     8     3.7   867.2    0.00 
  58   20:30   0.00   37.9    78    2.4   282     4.2   867.3    0.00 
  58   20:40   0.00   36.6    80    4.1   273     5.0   867.5    0.00 
  58   20:50   0.00   35.2    81    3.0   272     4.5   867.5    0.00 
  58   21:00   0.00   34.5    83    4.4   224     5.2   867.6    0.00 
  58   21:10   0.00   34.3    85    4.5   222     5.3   867.8    0.00 
  58   21:20   0.00   36.7    83    4.2   273     6.4   867.8    0.00 
  58   21:30   0.00   36.9    81    6.8   316    14.4   867.7    0.00 
  58   21:40   0.00   37.3    82    8.3   334    12.6   867.8    0.00 
  58   21:50   0.00   37.2    82    4.2   339     6.4   867.8    0.00 
  58   22:00   0.00   37.1    83    2.9   331     4.5   867.8    0.00 
  58   22:10   0.00   36.9    83    2.4   321     4.5   867.8    0.00 
  58   22:20   0.00   36.6    83    1.4   309     2.2   867.8    0.00 
  58   22:30   0.00   36.7    83    1.8   312     3.1   867.7    0.00 
  58   22:40   0.00   36.3    82    2.4   334     3.6   867.7    0.00 
  58   22:50   0.00   35.5    83    3.0   348     3.7   867.6    0.00 
  58   23:00   0.00   34.8    84    1.9     5     3.7   867.5    0.00 
  58   23:10   0.00   34.2    85    0.7    76     2.0   867.5    0.00 
  58   23:20   0.00   33.9    86    2.1   195     4.9   867.6    0.00 
  58   23:30   0.00   33.5    87    4.4   190     5.2   867.6    0.00 
  58   23:40   0.00   34.4    89    4.1   226     5.3   867.6    0.00 
  58   23:50   0.00   35.2    88    3.7   249     5.1   867.5    0.00 
  59    0:00   0.00   34.6    87    3.1   254     4.2   867.4    0.00 
  59    0:10   0.00   33.9    87    3.3   254     4.0   867.3    0.00 
  59    0:20   0.00   33.5    88    3.1   283     4.2   867.2    0.00 
  59    0:30   0.00   33.0    88    0.8   289     2.1   867.2    0.00 
  59    0:40   0.00   33.2    89    1.6   289     3.4   867.1    0.00 
  59    0:50   0.00   33.3    89    3.2   306     3.7   867.0    0.00 
  59    1:00   0.00   33.5    90    1.6   247     2.6   867.0    0.00 
  59    1:10   0.00   33.3    90    2.6   264     3.4   867.0    0.00 
  59    1:20   0.00   33.6    90    2.3   250     3.4   867.1    0.00 
  59    1:30   0.00   33.8    90    1.6   264     2.4   867.1    0.00 
  59    1:40   0.00   33.7    90    1.1   240     2.6   867.1    0.00 
  59    1:50   0.00   33.6    90    0.1   305     0.9   867.2    0.00 
  59    2:00   0.00   33.3    90    0.3   305     1.1   867.2    0.00 
  59    2:10   0.00   32.9    90    0.4   304     0.8   867.2    0.00 
  59    2:20   0.00   33.0    90    0.8   182     4.2   867.3    0.00 
  59    2:30   0.00   33.1    90    2.0   203     3.0   867.3    0.00 
  59    2:40   0.00   33.8    91    0.4   210     1.5   867.2    0.00 
  59    2:50   0.00   34.0    90    0.4   154     0.9   867.2    0.00 
  59    3:00   0.00   34.1    91    0.4    78     2.2   867.2    0.00 
  59    3:10   0.00   34.1    91    2.7    53     3.4   867.0    0.00 
  59    3:20   0.00   33.6    91    2.1    57     3.4   866.9    0.00 
  59    3:30   0.00   33.2    91    1.8    87     2.5   866.8    0.00 
  59    3:40   0.00   32.7    91    0.0   101     0.6   866.8    0.00 
  59    3:50   0.00   32.6    91    0.2   102     0.9   866.8    0.00 
  59    4:00   0.00   31.9    91    0.6   102     1.7   866.9    0.00 
  59    4:10   0.00   31.5    92    3.6   280     6.0   866.9    0.00 
  59    4:20   0.00   31.3    92    3.1   259     4.3   867.0    0.00 
  59    4:30   0.00   31.9    93    1.8   264     3.9   867.0    0.00 
  59    4:40   0.00   30.6    92    2.3   183     3.4   867.1    0.00 

Return to south Mason Valley graphs page.


Western Regional Climate Center,wrcc@dri.edu